sensor_id;sensor_type;location;lat;lon;timestamp;temperature;humidity
12889;DHT22;56848;49.896;11.424;2022-10-31T05:02:24;6.40;99.90
12889;DHT22;56848;49.896;11.424;2022-10-31T05:04:50;6.30;99.90
12889;DHT22;56848;49.896;11.424;2022-10-31T05:07:15;6.30;99.90
12889;DHT22;56848;49.896;11.424;2022-10-31T05:09:41;6.30;99.90
12889;DHT22;56848;49.896;11.424;2022-10-31T05:12:06;6.40;99.90
12889;DHT22;56848;49.896;11.424;2022-10-31T05:17:06;6.20;99.90
12889;DHT22;56848;49.896;11.424;2022-10-31T05:19:31;6.10;99.90
12889;DHT22;56848;49.896;11.424;2022-10-31T05:21:57;6.10;99.90
12889;DHT22;56848;49.896;11.424;2022-10-31T05:24:22;6.20;99.90
12889;DHT22;56848;49.896;11.424;2022-10-31T05:26:49;6.20;99.90
12889;DHT22;56848;49.896;11.424;2022-10-31T05:29:14;6.30;99.90
12889;DHT22;56848;49.896;11.424;2022-10-31T05:31:40;6.20;99.90
12889;DHT22;56848;49.896;11.424;2022-10-31T05:34:05;6.00;99.90
12889;DHT22;56848;49.896;11.424;2022-10-31T05:36:31;6.00;99.90
12889;DHT22;56848;49.896;11.424;2022-10-31T05:38:56;5.90;99.90
12889;DHT22;56848;49.896;11.424;2022-10-31T05:41:22;5.90;99.90
12889;DHT22;56848;49.896;11.424;2022-10-31T05:43:48;5.90;99.90
12889;DHT22;56848;49.896;11.424;2022-10-31T05:46:13;6.00;99.90
12889;DHT22;56848;49.896;11.424;2022-10-31T05:48:39;6.10;99.90
12889;DHT22;56848;49.896;11.424;2022-10-31T05:51:04;6.20;99.90
12889;DHT22;56848;49.896;11.424;2022-10-31T05:53:30;6.20;99.90
12889;DHT22;56848;49.896;11.424;2022-10-31T05:55:56;6.20;99.90
12889;DHT22;56848;49.896;11.424;2022-10-31T05:58:22;6.20;99.90
12889;DHT22;56848;49.896;11.424;2022-10-31T06:00:48;6.20;99.90
12889;DHT22;56848;49.896;11.424;2022-10-31T06:03:13;6.20;99.90
12889;DHT22;56848;49.896;11.424;2022-10-31T06:05:39;6.10;99.90
12889;DHT22;56848;49.896;11.424;2022-10-31T06:08:04;6.10;99.90
12889;DHT22;56848;49.896;11.424;2022-10-31T06:10:30;6.20;99.90
12889;DHT22;56848;49.896;11.424;2022-10-31T06:12:56;6.30;99.90
12889;DHT22;56848;49.896;11.424;2022-10-31T06:15:21;6.30;99.90
12889;DHT22;56848;49.896;11.424;2022-10-31T06:18:00;6.30;99.90
12889;DHT22;56848;49.896;11.424;2022-10-31T06:20:26;6.20;99.90
12889;DHT22;56848;49.896;11.424;2022-10-31T06:22:52;6.20;99.90
12889;DHT22;56848;49.896;11.424;2022-10-31T06:25:17;6.20;99.90
12889;DHT22;56848;49.896;11.424;2022-10-31T06:27:43;6.20;99.90
12889;DHT22;56848;49.896;11.424;2022-10-31T06:30:09;6.20;99.90
12889;DHT22;56848;49.896;11.424;2022-10-31T06:32:35;6.30;99.90
12889;DHT22;56848;49.896;11.424;2022-10-31T06:35:00;6.40;99.90
12889;DHT22;56848;49.896;11.424;2022-10-31T06:37:26;6.30;99.90
12889;DHT22;56848;49.896;11.424;2022-10-31T06:39:51;6.30;99.90
12889;DHT22;56848;49.896;11.424;2022-10-31T06:42:17;6.30;99.90
12889;DHT22;56848;49.896;11.424;2022-10-31T06:44:42;6.40;99.90
12889;DHT22;56848;49.896;11.424;2022-10-31T06:47:08;6.50;99.90
12889;DHT22;56848;49.896;11.424;2022-10-31T06:49:33;6.50;99.90
12889;DHT22;56848;49.896;11.424;2022-10-31T06:51:59;6.50;99.90
12889;DHT22;56848;49.896;11.424;2022-10-31T06:54:25;6.50;99.90
12889;DHT22;56848;49.896;11.424;2022-10-31T06:56:50;6.60;99.90
12889;DHT22;56848;49.896;11.424;2022-10-31T06:59:16;6.60;99.90
12889;DHT22;56848;49.896;11.424;2022-10-31T07:01:42;6.70;99.90
12889;DHT22;56848;49.896;11.424;2022-10-31T07:04:09;6.70;99.90
12889;DHT22;56848;49.896;11.424;2022-10-31T07:06:35;6.60;99.90
12889;DHT22;56848;49.896;11.424;2022-10-31T07:09:00;6.70;99.90
12889;DHT22;56848;49.896;11.424;2022-10-31T07:11:26;6.80;99.90
12889;DHT22;56848;49.896;11.424;2022-10-31T07:13:51;6.90;99.90
12889;DHT22;56848;49.896;11.424;2022-10-31T07:16:17;6.90;99.90
12889;DHT22;56848;49.896;11.424;2022-10-31T07:18:43;6.80;99.90
12889;DHT22;56848;49.896;11.424;2022-10-31T07:21:08;6.90;99.90
12889;DHT22;56848;49.896;11.424;2022-10-31T07:23:34;6.90;99.90
12889;DHT22;56848;49.896;11.424;2022-10-31T07:25:59;6.90;99.90
12889;DHT22;56848;49.896;11.424;2022-10-31T07:28:26;6.90;99.90
12889;DHT22;56848;49.896;11.424;2022-10-31T07:30:53;7.00;99.90
12889;DHT22;56848;49.896;11.424;2022-10-31T07:33:19;7.00;99.90
12889;DHT22;56848;49.896;11.424;2022-10-31T07:35:45;6.90;99.90
12889;DHT22;56848;49.896;11.424;2022-10-31T07:38:12;7.00;99.90
12889;DHT22;56848;49.896;11.424;2022-10-31T07:40:38;7.10;99.90
12889;DHT22;56848;49.896;11.424;2022-10-31T07:43:04;7.30;99.90
12889;DHT22;56848;49.896;11.424;2022-10-31T07:45:30;7.40;99.90
12889;DHT22;56848;49.896;11.424;2022-10-31T07:47:56;7.50;99.90
12889;DHT22;56848;49.896;11.424;2022-10-31T07:50:24;7.60;99.90
12889;DHT22;56848;49.896;11.424;2022-10-31T07:53:06;7.60;99.90
12889;DHT22;56848;49.896;11.424;2022-10-31T07:55:32;7.60;99.90
12889;DHT22;56848;49.896;11.424;2022-10-31T07:58:00;7.80;99.90
12889;DHT22;56848;49.896;11.424;2022-10-31T08:00:27;7.90;99.90
12889;DHT22;56848;49.896;11.424;2022-10-31T08:03:00;8.00;99.90
12889;DHT22;56848;49.896;11.424;2022-10-31T08:05:26;8.10;99.90
12889;DHT22;56848;49.896;11.424;2022-10-31T08:07:52;8.30;99.90
12889;DHT22;56848;49.896;11.424;2022-10-31T08:10:17;8.30;99.90
12889;DHT22;56848;49.896;11.424;2022-10-31T08:12:43;8.30;99.90
12889;DHT22;56848;49.896;11.424;2022-10-31T08:15:09;8.40;99.90
12889;DHT22;56848;49.896;11.424;2022-10-31T08:17:35;8.50;99.90
12889;DHT22;56848;49.896;11.424;2022-10-31T08:20:02;8.60;99.90
12889;DHT22;56848;49.896;11.424;2022-10-31T08:22:27;8.70;99.90
12889;DHT22;56848;49.896;11.424;2022-10-31T08:24:53;8.90;99.90
12889;DHT22;56848;49.896;11.424;2022-10-31T08:27:19;9.00;99.90
12889;DHT22;56848;49.896;11.424;2022-10-31T08:29:44;9.00;99.90
12889;DHT22;56848;49.896;11.424;2022-10-31T08:32:10;9.00;99.90
12889;DHT22;56848;49.896;11.424;2022-10-31T08:34:35;9.10;99.90
12889;DHT22;56848;49.896;11.424;2022-10-31T08:37:01;9.20;99.90
12889;DHT22;56848;49.896;11.424;2022-10-31T08:39:26;9.30;99.90
12889;DHT22;56848;49.896;11.424;2022-10-31T08:41:52;9.30;99.90
12889;DHT22;56848;49.896;11.424;2022-10-31T08:44:17;9.40;99.90
12889;DHT22;56848;49.896;11.424;2022-10-31T08:46:43;9.50;99.90
12889;DHT22;56848;49.896;11.424;2022-10-31T08:49:08;9.50;99.90
12889;DHT22;56848;49.896;11.424;2022-10-31T08:51:34;9.60;99.90
12889;DHT22;56848;49.896;11.424;2022-10-31T08:53:59;9.60;99.90
12889;DHT22;56848;49.896;11.424;2022-10-31T08:56:25;9.60;99.90
12889;DHT22;56848;49.896;11.424;2022-10-31T08:58:53;9.80;99.90
12889;DHT22;56848;49.896;11.424;2022-10-31T09:01:18;9.90;99.90
12889;DHT22;56848;49.896;11.424;2022-10-31T09:03:44;10.00;99.90
12889;DHT22;56848;49.896;11.424;2022-10-31T09:06:09;10.20;99.90
12889;DHT22;56848;49.896;11.424;2022-10-31T09:08:35;10.30;99.90
12889;DHT22;56848;49.896;11.424;2022-10-31T09:11:02;10.40;99.90
12889;DHT22;56848;49.896;11.424;2022-10-31T09:13:28;10.60;99.90
12889;DHT22;56848;49.896;11.424;2022-10-31T09:15:53;10.70;99.90
12889;DHT22;56848;49.896;11.424;2022-10-31T09:18:21;11.00;99.90
12889;DHT22;56848;49.896;11.424;2022-10-31T09:20:48;11.10;99.90
12889;DHT22;56848;49.896;11.424;2022-10-31T09:23:16;11.20;99.90
12889;DHT22;56848;49.896;11.424;2022-10-31T09:25:42;11.30;99.90
12889;DHT22;56848;49.896;11.424;2022-10-31T09:28:11;11.50;99.90
12889;DHT22;56848;49.896;11.424;2022-10-31T09:30:37;11.50;99.90
12889;DHT22;56848;49.896;11.424;2022-10-31T09:33:11;11.60;99.90
12889;DHT22;56848;49.896;11.424;2022-10-31T09:35:37;11.60;99.90
12889;DHT22;56848;49.896;11.424;2022-10-31T09:38:09;11.60;99.90
12889;DHT22;56848;49.896;11.424;2022-10-31T09:40:36;11.90;99.90
12889;DHT22;56848;49.896;11.424;2022-10-31T09:43:09;12.00;99.90
12889;DHT22;56848;49.896;11.424;2022-10-31T09:48:53;12.30;99.90
12889;DHT22;56848;49.896;11.424;2022-10-31T09:51:31;12.30;99.90
12889;DHT22;56848;49.896;11.424;2022-10-31T09:54:06;12.40;99.90
12889;DHT22;56848;49.896;11.424;2022-10-31T09:56:34;12.60;99.90
12889;DHT22;56848;49.896;11.424;2022-10-31T09:59:03;12.60;99.90
12889;DHT22;56848;49.896;11.424;2022-10-31T10:09:49;13.00;99.90
12889;DHT22;56848;49.896;11.424;2022-10-31T10:17:59;13.50;99.90
12889;DHT22;56848;49.896;11.424;2022-10-31T10:21:09;13.80;99.90
12889;DHT22;56848;49.896;11.424;2022-10-31T10:23:49;13.80;99.90
12889;DHT22;56848;49.896;11.424;2022-10-31T10:26:20;13.90;99.90
12889;DHT22;56848;49.896;11.424;2022-10-31T10:28:52;14.10;99.90
12889;DHT22;56848;49.896;11.424;2022-10-31T10:31:35;14.20;99.90
12889;DHT22;56848;49.896;11.424;2022-10-31T10:34:05;14.30;99.90
12889;DHT22;56848;49.896;11.424;2022-10-31T10:36:40;14.40;99.90
12889;DHT22;56848;49.896;11.424;2022-10-31T10:41:44;14.60;99.90
12889;DHT22;56848;49.896;11.424;2022-10-31T10:44:11;14.80;99.90
12889;DHT22;56848;49.896;11.424;2022-10-31T10:46:48;14.90;99.90
12889;DHT22;56848;49.896;11.424;2022-10-31T10:58:07;15.20;99.90
12889;DHT22;56848;49.896;11.424;2022-10-31T11:00:44;15.20;99.90
12889;DHT22;56848;49.896;11.424;2022-10-31T11:03:15;15.30;99.90
12889;DHT22;56848;49.896;11.424;2022-10-31T11:05:57;15.30;99.90
12889;DHT22;56848;49.896;11.424;2022-10-31T11:08:31;15.40;99.90
12889;DHT22;56848;49.896;11.424;2022-10-31T11:11:11;15.60;99.90
12889;DHT22;56848;49.896;11.424;2022-10-31T11:13:46;15.60;99.90
12889;DHT22;56848;49.896;11.424;2022-10-31T11:16:28;15.80;99.90
12889;DHT22;56848;49.896;11.424;2022-10-31T11:19:06;15.80;99.90
12889;DHT22;56848;49.896;11.424;2022-10-31T11:21:32;15.80;99.90
12889;DHT22;56848;49.896;11.424;2022-10-31T11:24:04;16.00;99.90
12889;DHT22;56848;49.896;11.424;2022-10-31T11:26:29;16.00;99.90
12889;DHT22;56848;49.896;11.424;2022-10-31T11:28:59;16.10;99.90
12889;DHT22;56848;49.896;11.424;2022-10-31T11:31:25;16.20;99.90
12889;DHT22;56848;49.896;11.424;2022-10-31T11:34:00;16.20;99.90
12889;DHT22;56848;49.896;11.424;2022-10-31T11:36:29;16.30;99.90
12889;DHT22;56848;49.896;11.424;2022-10-31T11:38:55;16.40;99.90
12889;DHT22;56848;49.896;11.424;2022-10-31T11:41:34;16.40;99.90
12889;DHT22;56848;49.896;11.424;2022-10-31T11:44:22;16.50;99.90
12889;DHT22;56848;49.896;11.424;2022-10-31T11:46:58;16.50;99.90
12889;DHT22;56848;49.896;11.424;2022-10-31T11:49:34;16.60;99.90
12889;DHT22;56848;49.896;11.424;2022-10-31T11:52:07;16.60;99.90
12889;DHT22;56848;49.896;11.424;2022-10-31T11:54:41;16.70;99.90
12889;DHT22;56848;49.896;11.424;2022-10-31T11:57:43;16.70;99.90
12889;DHT22;56848;49.896;11.424;2022-10-31T12:02:45;16.90;99.90
12889;DHT22;56848;49.896;11.424;2022-10-31T12:05:19;17.00;99.90
12889;DHT22;56848;49.896;11.424;2022-10-31T12:07:48;17.00;99.90
12889;DHT22;56848;49.896;11.424;2022-10-31T12:10:14;17.20;99.90
12889;DHT22;56848;49.896;11.424;2022-10-31T12:13:13;17.10;99.90
12889;DHT22;56848;49.896;11.424;2022-10-31T12:15:50;17.20;99.90
12889;DHT22;56848;49.896;11.424;2022-10-31T12:18:43;17.20;99.90
12889;DHT22;56848;49.896;11.424;2022-10-31T12:27:00;17.20;99.90
12889;DHT22;56848;49.896;11.424;2022-10-31T12:35:25;17.40;99.90
12889;DHT22;56848;49.896;11.424;2022-10-31T12:45:54;17.60;99.90
12889;DHT22;56848;49.896;11.424;2022-10-31T12:57:32;17.70;99.90
12889;DHT22;56848;49.896;11.424;2022-10-31T13:00:12;17.70;99.90
12889;DHT22;56848;49.896;11.424;2022-10-31T13:03:04;17.80;99.90
12889;DHT22;56848;49.896;11.424;2022-10-31T13:05:36;17.70;99.90
12889;DHT22;56848;49.896;11.424;2022-10-31T13:08:22;17.80;99.90
12889;DHT22;56848;49.896;11.424;2022-10-31T13:11:03;17.80;99.90
12889;DHT22;56848;49.896;11.424;2022-10-31T13:13:41;17.80;99.90
12889;DHT22;56848;49.896;11.424;2022-10-31T13:16:15;17.80;99.90
12889;DHT22;56848;49.896;11.424;2022-10-31T13:18:55;17.80;99.90
12889;DHT22;56848;49.896;11.424;2022-10-31T13:22:16;17.80;99.90
12889;DHT22;56848;49.896;11.424;2022-10-31T13:25:09;17.80;99.90
12889;DHT22;56848;49.896;11.424;2022-10-31T13:30:17;17.80;99.90
12889;DHT22;56848;49.896;11.424;2022-10-31T13:41:43;17.70;99.90
12889;DHT22;56848;49.896;11.424;2022-10-31T13:44:23;17.70;99.90
12889;DHT22;56848;49.896;11.424;2022-10-31T13:46:50;17.70;99.90
12889;DHT22;56848;49.896;11.424;2022-10-31T13:49:39;17.60;99.90
12889;DHT22;56848;49.896;11.424;2022-10-31T13:52:13;17.60;99.90
12889;DHT22;56848;49.896;11.424;2022-10-31T13:54:41;17.50;99.90
12889;DHT22;56848;49.896;11.424;2022-10-31T13:57:18;17.30;99.90
12889;DHT22;56848;49.896;11.424;2022-10-31T13:59:54;17.30;99.90
12889;DHT22;56848;49.896;11.424;2022-10-31T14:02:29;17.30;99.90
12889;DHT22;56848;49.896;11.424;2022-10-31T14:05:27;17.20;99.90
12889;DHT22;56848;49.896;11.424;2022-10-31T14:07:55;17.20;99.90
12889;DHT22;56848;49.896;11.424;2022-10-31T14:10:37;17.10;99.90
12889;DHT22;56848;49.896;11.424;2022-10-31T14:13:22;17.00;99.90
12889;DHT22;56848;49.896;11.424;2022-10-31T14:16:00;16.90;99.90
12889;DHT22;56848;49.896;11.424;2022-10-31T14:18:36;16.70;99.90
12889;DHT22;56848;49.896;11.424;2022-10-31T14:21:58;16.60;99.90
12889;DHT22;56848;49.896;11.424;2022-10-31T14:23:59;16.50;99.90
12889;DHT22;56848;49.896;11.424;2022-10-31T14:28:56;16.40;99.90
12889;DHT22;56848;49.896;11.424;2022-10-31T14:31:37;16.40;99.90
12889;DHT22;56848;49.896;11.424;2022-10-31T14:34:24;16.40;99.90
12889;DHT22;56848;49.896;11.424;2022-10-31T14:40:02;16.30;99.90
12889;DHT22;56848;49.896;11.424;2022-10-31T14:45:37;16.10;99.90
12889;DHT22;56848;49.896;11.424;2022-10-31T14:48:33;16.10;99.90
12889;DHT22;56848;49.896;11.424;2022-10-31T14:51:07;16.00;99.90
12889;DHT22;56848;49.896;11.424;2022-10-31T14:56:10;16.00;99.90
12889;DHT22;56848;49.896;11.424;2022-10-31T14:58:42;15.90;99.90
12889;DHT22;56848;49.896;11.424;2022-10-31T15:01:23;15.90;99.90
12889;DHT22;56848;49.896;11.424;2022-10-31T15:03:49;15.70;99.90
12889;DHT22;56848;49.896;11.424;2022-10-31T15:06:18;15.60;99.90
12889;DHT22;56848;49.896;11.424;2022-10-31T15:11:21;15.30;99.90
12889;DHT22;56848;49.896;11.424;2022-10-31T15:16:17;15.10;99.90
12889;DHT22;56848;49.896;11.424;2022-10-31T15:18:55;15.20;99.90
12889;DHT22;56848;49.896;11.424;2022-10-31T15:21:23;15.20;99.90
12889;DHT22;56848;49.896;11.424;2022-10-31T15:23:54;15.10;99.90
12889;DHT22;56848;49.896;11.424;2022-10-31T15:26:23;15.10;99.90
12889;DHT22;56848;49.896;11.424;2022-10-31T15:29:05;14.90;99.90
12889;DHT22;56848;49.896;11.424;2022-10-31T15:31:36;14.70;99.90
12889;DHT22;56848;49.896;11.424;2022-10-31T15:34:13;14.50;99.90
12889;DHT22;56848;49.896;11.424;2022-10-31T15:36:40;14.40;99.90
12889;DHT22;56848;49.896;11.424;2022-10-31T15:39:10;14.30;99.90
12889;DHT22;56848;49.896;11.424;2022-10-31T15:41:51;14.20;99.90
12889;DHT22;56848;49.896;11.424;2022-10-31T15:44:21;14.30;99.90
12889;DHT22;56848;49.896;11.424;2022-10-31T15:47:01;14.30;99.90
12889;DHT22;56848;49.896;11.424;2022-10-31T15:54:32;13.80;99.90
12889;DHT22;56848;49.896;11.424;2022-10-31T15:56:58;13.80;99.90
12889;DHT22;56848;49.896;11.424;2022-10-31T15:59:26;13.70;99.90
12889;DHT22;56848;49.896;11.424;2022-10-31T16:01:59;13.70;99.90
12889;DHT22;56848;49.896;11.424;2022-10-31T16:04:25;13.60;99.90
12889;DHT22;56848;49.896;11.424;2022-10-31T16:07:14;13.80;99.90
12889;DHT22;56848;49.896;11.424;2022-10-31T16:10:02;13.90;99.90
12889;DHT22;56848;49.896;11.424;2022-10-31T16:12:36;14.00;99.90
12889;DHT22;56848;49.896;11.424;2022-10-31T16:15:03;14.00;99.90
12889;DHT22;56848;49.896;11.424;2022-10-31T16:17:30;14.20;99.90
12889;DHT22;56848;49.896;11.424;2022-10-31T16:20:00;14.00;99.90
12889;DHT22;56848;49.896;11.424;2022-10-31T16:22:37;14.00;99.90
12889;DHT22;56848;49.896;11.424;2022-10-31T16:25:15;13.80;99.90
12889;DHT22;56848;49.896;11.424;2022-10-31T16:27:49;13.80;99.90
12889;DHT22;56848;49.896;11.424;2022-10-31T16:30:42;13.70;99.90
12889;DHT22;56848;49.896;11.424;2022-10-31T16:33:30;13.60;99.90
12889;DHT22;56848;49.896;11.424;2022-10-31T16:35:59;13.50;99.90
12889;DHT22;56848;49.896;11.424;2022-10-31T16:38:25;13.60;99.90
12889;DHT22;56848;49.896;11.424;2022-10-31T16:40:51;13.60;99.90
12889;DHT22;56848;49.896;11.424;2022-10-31T16:43:19;13.50;99.90
12889;DHT22;56848;49.896;11.424;2022-10-31T16:45:46;13.40;99.90
12889;DHT22;56848;49.896;11.424;2022-10-31T16:48:15;13.30;99.90
12889;DHT22;56848;49.896;11.424;2022-10-31T16:50:44;13.30;99.90
12889;DHT22;56848;49.896;11.424;2022-10-31T16:53:11;13.20;99.90
12889;DHT22;56848;49.896;11.424;2022-10-31T16:55:45;13.10;99.90
12889;DHT22;56848;49.896;11.424;2022-10-31T16:58:43;13.00;99.90
12889;DHT22;56848;49.896;11.424;2022-10-31T17:01:10;12.90;99.90
12889;DHT22;56848;49.896;11.424;2022-10-31T17:03:36;12.90;99.90
12889;DHT22;56848;49.896;11.424;2022-10-31T17:06:02;12.80;99.90
12889;DHT22;56848;49.896;11.424;2022-10-31T17:08:28;12.80;99.90
12889;DHT22;56848;49.896;11.424;2022-10-31T17:10:55;12.80;99.90
12889;DHT22;56848;49.896;11.424;2022-10-31T17:13:23;12.90;99.90
12889;DHT22;56848;49.896;11.424;2022-10-31T17:18:23;12.80;99.90
12889;DHT22;56848;49.896;11.424;2022-10-31T17:20:49;13.00;99.90
12889;DHT22;56848;49.896;11.424;2022-10-31T17:23:16;12.80;99.90
12889;DHT22;56848;49.896;11.424;2022-10-31T17:25:42;12.80;99.90
12889;DHT22;56848;49.896;11.424;2022-10-31T17:28:12;12.80;99.90
12889;DHT22;56848;49.896;11.424;2022-10-31T17:30:40;12.70;99.90
12889;DHT22;56848;49.896;11.424;2022-10-31T17:33:06;12.70;99.90
12889;DHT22;56848;49.896;11.424;2022-10-31T17:35:32;12.60;99.90
12889;DHT22;56848;49.896;11.424;2022-10-31T17:37:57;12.50;99.90
12889;DHT22;56848;49.896;11.424;2022-10-31T17:40:23;12.40;99.90
12889;DHT22;56848;49.896;11.424;2022-10-31T17:42:50;12.40;99.90
12889;DHT22;56848;49.896;11.424;2022-10-31T17:45:16;12.30;99.90
12889;DHT22;56848;49.896;11.424;2022-10-31T17:47:41;12.30;99.90
12889;DHT22;56848;49.896;11.424;2022-10-31T17:50:07;12.30;99.90
12889;DHT22;56848;49.896;11.424;2022-10-31T17:52:33;12.30;99.90
12889;DHT22;56848;49.896;11.424;2022-10-31T17:54:58;12.20;99.90
12889;DHT22;56848;49.896;11.424;2022-10-31T17:57:24;12.20;99.90
12889;DHT22;56848;49.896;11.424;2022-10-31T17:59:49;12.30;99.90
12889;DHT22;56848;49.896;11.424;2022-10-31T18:02:15;12.40;99.90
12889;DHT22;56848;49.896;11.424;2022-10-31T18:04:40;12.50;99.90
12889;DHT22;56848;49.896;11.424;2022-10-31T18:07:06;12.50;99.90
12889;DHT22;56848;49.896;11.424;2022-10-31T18:09:32;12.50;99.90
12889;DHT22;56848;49.896;11.424;2022-10-31T18:11:58;12.50;99.90
12889;DHT22;56848;49.896;11.424;2022-10-31T18:14:24;12.40;99.90
12889;DHT22;56848;49.896;11.424;2022-10-31T18:16:49;12.30;99.90
12889;DHT22;56848;49.896;11.424;2022-10-31T18:19:16;12.20;99.90
12889;DHT22;56848;49.896;11.424;2022-10-31T18:21:42;12.10;99.90
12889;DHT22;56848;49.896;11.424;2022-10-31T18:24:09;12.00;99.90
12889;DHT22;56848;49.896;11.424;2022-10-31T18:26:35;12.00;99.90
12889;DHT22;56848;49.896;11.424;2022-10-31T18:29:01;11.80;99.90
12889;DHT22;56848;49.896;11.424;2022-10-31T18:31:26;11.80;99.90
12889;DHT22;56848;49.896;11.424;2022-10-31T18:33:53;11.90;99.90
12889;DHT22;56848;49.896;11.424;2022-10-31T18:36:20;11.70;99.90
12889;DHT22;56848;49.896;11.424;2022-10-31T18:38:45;11.70;99.90
12889;DHT22;56848;49.896;11.424;2022-10-31T18:41:12;11.60;99.90
12889;DHT22;56848;49.896;11.424;2022-10-31T18:43:38;11.80;99.90
12889;DHT22;56848;49.896;11.424;2022-10-31T18:46:06;12.00;99.90
12889;DHT22;56848;49.896;11.424;2022-10-31T18:48:33;11.90;99.90
12889;DHT22;56848;49.896;11.424;2022-10-31T18:51:02;11.80;99.90
12889;DHT22;56848;49.896;11.424;2022-10-31T18:53:28;11.70;99.90
12889;DHT22;56848;49.896;11.424;2022-10-31T18:55:54;11.50;99.90
12889;DHT22;56848;49.896;11.424;2022-10-31T18:58:19;11.30;99.90
12889;DHT22;56848;49.896;11.424;2022-10-31T19:00:45;11.20;99.90
12889;DHT22;56848;49.896;11.424;2022-10-31T19:03:11;11.00;99.90
12889;DHT22;56848;49.896;11.424;2022-10-31T19:05:37;11.60;99.90
12889;DHT22;56848;49.896;11.424;2022-10-31T19:08:03;10.70;99.90
12889;DHT22;56848;49.896;11.424;2022-10-31T19:10:29;10.60;99.90
12889;DHT22;56848;49.896;11.424;2022-10-31T19:12:55;10.80;99.90
12889;DHT22;56848;49.896;11.424;2022-10-31T19:15:20;11.60;99.90
12889;DHT22;56848;49.896;11.424;2022-10-31T19:17:46;11.20;99.90
12889;DHT22;56848;49.896;11.424;2022-10-31T19:20:12;11.20;99.90
12889;DHT22;56848;49.896;11.424;2022-10-31T19:22:38;11.10;99.90
12889;DHT22;56848;49.896;11.424;2022-10-31T19:25:04;11.00;99.90
12889;DHT22;56848;49.896;11.424;2022-10-31T19:27:30;10.90;99.90
12889;DHT22;56848;49.896;11.424;2022-10-31T19:29:56;10.80;99.90
12889;DHT22;56848;49.896;11.424;2022-10-31T19:32:21;10.60;99.90
12889;DHT22;56848;49.896;11.424;2022-10-31T19:34:47;10.40;99.90
12889;DHT22;56848;49.896;11.424;2022-10-31T19:37:13;10.40;99.90
12889;DHT22;56848;49.896;11.424;2022-10-31T19:39:39;10.20;99.90
12889;DHT22;56848;49.896;11.424;2022-10-31T19:42:04;10.10;99.90
12889;DHT22;56848;49.896;11.424;2022-10-31T19:44:32;10.30;99.90
12889;DHT22;56848;49.896;11.424;2022-10-31T19:46:57;9.90;99.90
12889;DHT22;56848;49.896;11.424;2022-10-31T19:49:23;9.90;99.90
12889;DHT22;56848;49.896;11.424;2022-10-31T19:51:49;9.70;99.90
12889;DHT22;56848;49.896;11.424;2022-10-31T19:54:15;9.90;99.90
12889;DHT22;56848;49.896;11.424;2022-10-31T19:56:40;10.10;99.90
12889;DHT22;56848;49.896;11.424;2022-10-31T19:59:06;10.10;99.90
12889;DHT22;56848;49.896;11.424;2022-10-31T20:01:32;10.10;99.90
12889;DHT22;56848;49.896;11.424;2022-10-31T20:03:57;10.10;99.90
12889;DHT22;56848;49.896;11.424;2022-10-31T20:08:52;10.00;99.90
12889;DHT22;56848;49.896;11.424;2022-10-31T20:11:19;9.80;99.90
12889;DHT22;56848;49.896;11.424;2022-10-31T20:13:45;9.80;99.90
12889;DHT22;56848;49.896;11.424;2022-10-31T20:16:12;9.60;99.90
12889;DHT22;56848;49.896;11.424;2022-10-31T20:18:38;9.60;99.90
12889;DHT22;56848;49.896;11.424;2022-10-31T20:21:13;9.50;99.90
12889;DHT22;56848;49.896;11.424;2022-10-31T20:23:39;9.10;99.90
12889;DHT22;56848;49.896;11.424;2022-10-31T20:26:08;9.10;99.90
12889;DHT22;56848;49.896;11.424;2022-10-31T20:28:33;9.00;99.90
12889;DHT22;56848;49.896;11.424;2022-10-31T20:31:00;9.10;99.90
12889;DHT22;56848;49.896;11.424;2022-10-31T20:33:26;9.30;99.90
12889;DHT22;56848;49.896;11.424;2022-10-31T20:35:51;9.40;99.90
12889;DHT22;56848;49.896;11.424;2022-10-31T20:38:17;9.20;99.90
12889;DHT22;56848;49.896;11.424;2022-10-31T20:40:43;9.20;99.90
12889;DHT22;56848;49.896;11.424;2022-10-31T20:43:10;9.30;99.90
12889;DHT22;56848;49.896;11.424;2022-10-31T20:45:36;9.40;99.90
12889;DHT22;56848;49.896;11.424;2022-10-31T20:48:01;9.40;99.90
12889;DHT22;56848;49.896;11.424;2022-10-31T20:50:27;9.30;99.90
12889;DHT22;56848;49.896;11.424;2022-10-31T20:52:53;9.20;99.90
12889;DHT22;56848;49.896;11.424;2022-10-31T20:55:19;9.00;99.90
12889;DHT22;56848;49.896;11.424;2022-10-31T20:57:44;9.10;99.90
12889;DHT22;56848;49.896;11.424;2022-10-31T21:00:10;9.10;99.90
12889;DHT22;56848;49.896;11.424;2022-10-31T21:02:40;9.00;99.90
12889;DHT22;56848;49.896;11.424;2022-10-31T21:05:10;9.00;99.90
12889;DHT22;56848;49.896;11.424;2022-10-31T21:07:37;9.00;99.90
12889;DHT22;56848;49.896;11.424;2022-10-31T21:10:03;8.90;99.90
12889;DHT22;56848;49.896;11.424;2022-10-31T21:12:42;9.00;99.90
12889;DHT22;56848;49.896;11.424;2022-10-31T21:15:09;8.90;99.90
12889;DHT22;56848;49.896;11.424;2022-10-31T21:17:36;8.80;99.90
12889;DHT22;56848;49.896;11.424;2022-10-31T21:20:03;8.80;99.90
12889;DHT22;56848;49.896;11.424;2022-10-31T21:22:29;8.90;99.90
12889;DHT22;56848;49.896;11.424;2022-10-31T21:24:54;8.90;99.90
12889;DHT22;56848;49.896;11.424;2022-10-31T21:27:20;9.00;99.90
12889;DHT22;56848;49.896;11.424;2022-10-31T21:29:45;9.10;99.90
12889;DHT22;56848;49.896;11.424;2022-10-31T21:32:11;8.90;99.90
12889;DHT22;56848;49.896;11.424;2022-10-31T21:34:37;8.70;99.90
12889;DHT22;56848;49.896;11.424;2022-10-31T21:37:02;8.30;99.90
12889;DHT22;56848;49.896;11.424;2022-10-31T21:39:28;8.40;99.90
